createdAt,value
2018-01-27T00:01:17.981Z,9.70
2018-01-27T00:03:46.158Z,9.03
2018-01-27T00:06:14.315Z,9.47
2018-01-27T00:08:42.515Z,10.17
2018-01-27T00:11:10.679Z,9.07
2018-01-27T00:13:38.842Z,9.23
2018-01-27T00:16:07.018Z,9.33
2018-01-27T00:18:35.174Z,8.33
2018-01-27T00:21:03.446Z,7.87
2018-01-27T00:23:31.627Z,9.47
2018-01-27T00:25:59.776Z,10.27
2018-01-27T00:28:28.702Z,7.77
2018-01-27T00:30:56.896Z,9.03
2018-01-27T00:33:25.050Z,7.83
2018-01-27T00:35:53.229Z,8.47
2018-01-27T00:38:21.418Z,8.73
2018-01-27T00:40:49.566Z,8.37
2018-01-27T00:43:17.732Z,8.33
2018-01-27T00:45:45.942Z,7.93
2018-01-27T00:48:14.103Z,9.43
2018-01-27T00:50:42.298Z,8.20
2018-01-27T00:53:10.516Z,8.07
2018-01-27T00:55:39.448Z,9.10
2018-01-27T00:58:07.601Z,8.93
2018-01-27T01:00:35.807Z,8.73
2018-01-27T01:03:04.044Z,8.87
2018-01-27T01:05:32.197Z,8.93
2018-01-27T01:08:01.282Z,9.90
2018-01-27T01:10:30.235Z,8.73
2018-01-27T01:12:58.419Z,9.07
2018-01-27T01:15:26.617Z,9.17
2018-01-27T01:17:55.600Z,10.07
2018-01-27T01:20:23.805Z,9.03
2018-01-27T01:22:52.765Z,10.20
2018-01-27T01:25:20.922Z,9.80
2018-01-27T01:27:49.120Z,9.30
2018-01-27T01:30:17.911Z,9.97
2018-01-27T01:32:46.857Z,8.93
2018-01-27T01:35:15.028Z,10.10
2018-01-27T01:37:43.242Z,9.83
2018-01-27T01:40:11.422Z,9.80
2018-01-27T01:42:45.297Z,11.30
2018-01-27T01:45:13.451Z,11.67
2018-01-27T01:47:42.370Z,10.33
2018-01-27T01:50:10.639Z,10.23
2018-01-27T01:52:38.815Z,9.50
2018-01-27T01:55:06.965Z,9.23
2018-01-27T01:57:35.928Z,10.67
2018-01-27T02:00:04.262Z,10.17
2018-01-27T02:02:32.435Z,9.70
2018-01-27T02:05:00.645Z,10.07
2018-01-27T02:07:28.862Z,10.53
2018-01-27T02:09:57.784Z,10.43
2018-01-27T02:12:25.994Z,9.93
2018-01-27T02:14:54.172Z,10.27
2018-01-27T02:17:22.326Z,10.33
2018-01-27T02:19:50.514Z,9.60
2018-01-27T02:22:18.682Z,8.80
2018-01-27T02:24:46.833Z,9.90
2018-01-27T02:27:15.028Z,10.07
2018-01-27T02:29:43.958Z,9.93
2018-01-27T02:32:13.624Z,9.93
2018-01-27T02:34:41.838Z,9.67
2018-01-27T02:37:09.982Z,9.00
2018-01-27T02:39:38.178Z,10.13
2018-01-27T02:42:06.358Z,9.50
2018-01-27T02:44:34.510Z,10.20
2018-01-27T02:47:02.676Z,9.90
2018-01-27T02:49:30.859Z,9.47
2018-01-27T02:51:59.034Z,9.23
2018-01-27T02:54:27.228Z,10.07
2018-01-27T02:56:55.416Z,10.07
2018-01-27T02:59:23.556Z,9.77
2018-01-27T03:01:51.715Z,9.97
2018-01-27T03:04:19.914Z,9.90
2018-01-27T03:06:48.657Z,10.67
2018-01-27T03:09:17.581Z,10.70
2018-01-27T03:11:45.773Z,9.87
2018-01-27T03:14:13.922Z,9.77
2018-01-27T03:16:42.105Z,9.30
2018-01-27T03:19:10.293Z,10.80
2018-01-27T03:21:38.457Z,10.43
2018-01-27T03:24:06.607Z,10.83
2018-01-27T03:26:35.575Z,10.90
2018-01-27T03:29:03.739Z,11.73
2018-01-27T03:31:31.909Z,10.50
2018-01-27T03:34:01.603Z,10.77
2018-01-27T03:36:29.753Z,10.67
2018-01-27T03:38:58.300Z,10.97
2018-01-27T03:41:27.266Z,10.80
2018-01-27T03:43:55.440Z,10.93
2018-01-27T03:46:23.620Z,11.07
2018-01-27T03:48:51.840Z,10.73
2018-01-27T03:51:20.007Z,11.27
2018-01-27T03:53:48.928Z,11.07
2018-01-27T03:56:17.130Z,10.67
2018-01-27T03:58:45.363Z,10.87
2018-01-27T04:01:13.538Z,11.33
2018-01-27T04:03:41.742Z,11.53
2018-01-27T04:06:09.912Z,10.83
2018-01-27T04:08:38.060Z,11.90
2018-01-27T04:11:06.252Z,11.27
2018-01-27T04:13:34.430Z,10.90
2018-01-27T04:16:02.576Z,11.47
2018-01-27T04:18:31.533Z,11.93
2018-01-27T04:20:59.705Z,12.67
2018-01-27T04:23:27.888Z,10.97
2018-01-27T04:25:56.072Z,11.13
2018-01-27T04:28:24.245Z,11.37
2018-01-27T04:30:52.401Z,11.83
2018-01-27T04:33:20.742Z,11.30
2018-01-27T04:35:48.919Z,11.87
2018-01-27T04:38:17.092Z,12.37
2018-01-27T04:40:45.308Z,12.07
2018-01-27T04:43:13.463Z,11.40
2018-01-27T04:45:41.714Z,11.73
2018-01-27T04:48:09.905Z,11.87
2018-01-27T04:50:38.056Z,13.27
2018-01-27T04:53:06.995Z,12.70
2018-01-27T04:55:35.273Z,12.97
2018-01-27T04:58:03.445Z,12.80
2018-01-27T05:00:31.615Z,12.07
2018-01-27T05:02:59.849Z,12.23
2018-01-27T05:05:28.803Z,11.87
2018-01-27T05:07:56.964Z,13.80
2018-01-27T05:10:25.159Z,13.40
2018-01-27T05:12:53.333Z,11.93
2018-01-27T05:15:21.519Z,12.00
2018-01-27T05:17:49.931Z,12.53
2018-01-27T05:20:18.139Z,13.30
2018-01-27T05:22:46.311Z,12.90
2018-01-27T05:25:14.512Z,13.43
2018-01-27T05:27:43.474Z,13.67
2018-01-27T05:30:11.640Z,12.60
2018-01-27T05:32:40.608Z,12.97
2018-01-27T05:35:09.537Z,12.40
2018-01-27T05:37:37.721Z,13.23
2018-01-27T05:40:05.920Z,13.43
2018-01-27T05:42:34.968Z,12.90
2018-01-27T05:45:03.168Z,13.17
2018-01-27T05:47:31.376Z,12.80
2018-01-27T05:49:59.562Z,13.07
2018-01-27T05:52:27.732Z,12.63
2018-01-27T05:54:56.707Z,13.43
2018-01-27T05:57:25.684Z,14.03
2018-01-27T05:59:53.848Z,13.03
2018-01-27T06:02:22.050Z,13.83
2018-01-27T06:04:50.226Z,14.60
2018-01-27T06:07:18.433Z,13.90
2018-01-27T06:09:47.397Z,16.67
2018-01-27T06:12:15.570Z,14.53
2018-01-27T06:14:43.737Z,15.40
2018-01-27T06:17:11.942Z,14.37
2018-01-27T06:19:40.112Z,14.73
2018-01-27T06:22:08.283Z,15.97
2018-01-27T06:24:36.497Z,15.13
2018-01-27T06:27:04.668Z,14.50
2018-01-27T06:29:32.827Z,14.67
2018-01-27T06:32:01.822Z,14.83
2018-01-27T06:34:30.751Z,14.93
2018-01-27T06:36:58.928Z,15.37
2018-01-27T06:39:27.115Z,17.73
2018-01-27T06:41:55.304Z,17.20
2018-01-27T06:44:23.481Z,16.97
2018-01-27T06:46:51.699Z,19.23
2018-01-27T06:49:20.641Z,18.00
2018-01-27T06:51:48.821Z,18.50
2018-01-27T06:54:17.157Z,18.33
2018-01-27T06:56:45.535Z,17.43
2018-01-27T06:59:13.697Z,17.27
2018-01-27T07:01:42.688Z,17.73
2018-01-27T07:04:11.701Z,18.10
2018-01-27T07:06:40.536Z,18.50
2018-01-27T07:09:08.811Z,20.93
2018-01-27T07:11:40.094Z,19.43
2018-01-27T07:14:09.064Z,21.13
2018-01-27T07:16:38.804Z,21.30
2018-01-27T07:19:07.753Z,24.10
2018-01-27T07:21:35.958Z,21.10
2018-01-27T07:24:04.164Z,22.20
2018-01-27T07:26:32.384Z,22.37
2018-01-27T07:29:00.590Z,21.90
2018-01-27T07:31:29.530Z,21.77
2018-01-27T07:33:57.762Z,21.87
2018-01-27T07:36:26.011Z,23.67
2018-01-27T07:38:54.192Z,21.97
2018-01-27T07:41:22.391Z,21.97
2018-01-27T07:43:51.381Z,20.97
2018-01-27T07:46:20.470Z,22.07
2018-01-27T07:48:49.452Z,22.17
2018-01-27T07:51:17.626Z,22.40
2018-01-27T07:53:45.839Z,22.67
2018-01-27T07:56:14.774Z,22.73
2018-01-27T07:58:43.022Z,25.60
2018-01-27T08:01:11.237Z,27.43
2018-01-27T08:03:39.439Z,24.67
2018-01-27T08:06:08.331Z,28.50
2018-01-27T08:08:36.595Z,29.07
2018-01-27T08:11:04.795Z,28.67
2018-01-27T08:13:33.159Z,28.17
2018-01-27T08:16:01.369Z,27.90
2018-01-27T08:18:29.567Z,26.93
2018-01-27T08:20:58.339Z,29.73
2018-01-27T08:23:26.538Z,27.43
2018-01-27T08:25:54.698Z,30.33
2018-01-27T08:28:23.397Z,29.67
2018-01-27T08:30:51.622Z,29.27
2018-01-27T08:33:20.565Z,30.50
2018-01-27T08:35:48.735Z,30.03
2018-01-27T08:38:16.940Z,30.23
2018-01-27T08:40:45.249Z,36.23
2018-01-27T08:43:13.447Z,28.80
2018-01-27T08:45:41.726Z,29.47
2018-01-27T08:48:09.923Z,28.10
2018-01-27T08:51:13.685Z,27.77
2018-01-27T08:53:42.639Z,30.87
2018-01-27T08:56:10.883Z,28.03
2018-01-27T08:58:39.067Z,29.40
2018-01-27T09:01:07.246Z,26.67
2018-01-27T09:03:35.439Z,28.40
2018-01-27T09:06:03.671Z,28.10
2018-01-27T09:08:32.017Z,28.10
2018-01-27T09:11:00.193Z,26.00
2018-01-27T09:13:28.409Z,23.67
2018-01-27T09:15:56.735Z,23.80
2018-01-27T09:18:26.444Z,23.20
2018-01-27T09:20:54.647Z,23.87
2018-01-27T09:23:23.604Z,23.97
2018-01-27T09:25:51.845Z,25.70
2018-01-27T09:28:20.090Z,27.00
2018-01-27T09:30:49.268Z,26.47
2018-01-27T09:33:17.508Z,24.50
2018-01-27T09:35:45.730Z,29.93
2018-01-27T09:38:13.959Z,28.87
2018-01-27T09:40:42.154Z,24.20
2018-01-27T09:43:10.502Z,25.03
2018-01-27T09:45:39.522Z,27.13
2018-01-27T09:48:07.690Z,25.97
2018-01-27T09:50:35.892Z,23.77
2018-01-27T09:53:04.078Z,24.60
2018-01-27T09:55:32.262Z,25.00
2018-01-27T09:58:00.580Z,24.57
2018-01-27T10:00:28.760Z,26.67
2018-01-27T10:02:56.952Z,26.93
2018-01-27T10:05:25.227Z,28.23
2018-01-27T10:07:53.408Z,25.63
2018-01-27T10:10:21.588Z,28.63
2018-01-27T10:12:49.796Z,28.43
2018-01-27T10:15:18.738Z,28.57
2018-01-27T10:17:47.038Z,25.40
2018-01-27T10:20:15.256Z,26.77
2018-01-27T10:22:44.266Z,27.87
2018-01-27T10:25:12.458Z,26.30
2018-01-27T10:27:40.660Z,27.57
2018-01-27T10:30:08.835Z,27.83
2018-01-27T10:32:37.009Z,25.47
2018-01-27T10:35:05.220Z,28.93
2018-01-27T10:37:33.403Z,29.23
2018-01-27T10:40:02.341Z,26.93
2018-01-27T10:42:30.584Z,27.40
2018-01-27T10:44:59.573Z,27.10
2018-01-27T10:47:28.525Z,28.60
2018-01-27T10:49:56.757Z,29.67
2018-01-27T10:52:24.926Z,27.70
2018-01-27T10:54:53.113Z,28.20
2018-01-27T10:57:21.387Z,32.10
2018-01-27T10:59:49.547Z,28.23
2018-01-27T11:02:17.743Z,27.17
2018-01-27T11:04:46.013Z,31.10
2018-01-27T11:07:14.211Z,29.13
2018-01-27T11:09:42.431Z,26.53
2018-01-27T11:12:10.653Z,33.90
2018-01-27T11:14:38.921Z,33.83
2018-01-27T11:17:07.412Z,31.40
2018-01-27T11:19:35.781Z,31.83
2018-01-27T11:22:04.211Z,31.37
2018-01-27T12:01:06.114Z,25.57
2018-01-27T12:03:35.082Z,29.92
2018-01-27T12:06:03.306Z,29.07
2018-01-27T12:08:31.556Z,25.73
2018-01-27T12:11:00.527Z,31.70
2018-01-27T12:13:28.756Z,34.50
2018-01-27T12:15:57.042Z,36.87
2018-01-27T12:18:25.208Z,41.37
2018-01-27T12:20:53.388Z,37.83
2018-01-27T12:23:21.738Z,33.60
2018-01-27T12:25:50.677Z,35.10
2018-01-27T12:28:18.850Z,33.70
2018-01-27T12:30:47.085Z,33.87
2018-01-27T12:33:16.041Z,32.57
2018-01-27T12:35:44.431Z,29.67
2018-01-27T12:38:12.707Z,31.83
2018-01-27T12:40:40.919Z,31.23
2018-01-27T12:43:09.123Z,30.43
2018-01-27T12:45:37.372Z,27.27
2018-01-27T12:48:05.533Z,24.10
2018-01-27T12:50:34.458Z,23.37
2018-01-27T12:53:02.727Z,24.80
2018-01-27T12:55:30.931Z,27.67
2018-01-27T12:57:59.149Z,22.97
2018-01-27T13:00:28.343Z,23.57
2018-01-27T13:02:56.649Z,26.47
2018-01-27T13:05:25.601Z,27.47
2018-01-27T13:07:53.931Z,28.53
2018-01-27T13:10:22.219Z,35.80
2018-01-27T13:12:50.416Z,33.50
2018-01-27T13:15:18.640Z,25.53
2018-01-27T13:17:47.584Z,35.53
2018-01-27T13:20:15.806Z,25.80
2018-01-27T13:22:44.819Z,32.20
2018-01-27T13:25:13.171Z,28.77
2018-01-27T13:27:42.146Z,90.57
2018-01-27T13:30:11.842Z,47.03
2018-01-27T13:32:40.332Z,27.37
2018-01-27T13:35:08.568Z,37.43
2018-01-27T13:37:36.765Z,26.70
2018-01-27T13:40:04.977Z,39.17
2018-01-27T13:42:33.194Z,41.83
2018-01-27T13:45:01.384Z,24.40
2018-01-27T13:47:29.613Z,23.63
2018-01-27T13:49:57.857Z,23.67
2018-01-27T13:52:26.032Z,28.40
2018-01-27T13:54:54.212Z,31.77
2018-01-27T13:57:22.424Z,27.03
2018-01-27T13:59:51.381Z,25.87
2018-01-27T14:02:19.588Z,51.87
2018-01-27T14:04:48.607Z,25.97
2018-01-27T14:07:16.818Z,34.63
2018-01-27T14:09:45.021Z,26.67
2018-01-27T14:12:14.732Z,25.70
2018-01-27T14:14:42.905Z,25.17
2018-01-27T14:17:11.075Z,22.07
2018-01-27T14:19:39.322Z,23.20
2018-01-27T14:22:07.512Z,22.83
2018-01-27T14:24:35.701Z,33.53
2018-01-27T14:27:04.850Z,24.07
2018-01-27T14:29:33.036Z,23.70
2018-01-27T14:32:01.249Z,21.97
2018-01-27T14:34:30.992Z,26.17
2018-01-27T14:36:59.292Z,23.07
2018-01-27T14:39:27.474Z,20.17
2018-01-27T14:41:55.742Z,22.47
2018-01-27T14:44:23.913Z,24.30
2018-01-27T14:46:52.102Z,22.37
2018-01-27T14:49:20.321Z,23.13
2018-01-27T14:51:48.632Z,23.13
2018-01-27T14:54:16.895Z,20.43
2018-01-27T14:56:45.895Z,20.10
2018-01-27T14:59:14.134Z,20.27
2018-01-27T15:01:42.473Z,20.77
2018-01-27T15:04:10.678Z,21.00
2018-01-27T15:06:38.946Z,20.20
2018-01-27T15:09:07.153Z,23.30
2018-01-27T15:11:35.387Z,25.23
2018-01-27T15:14:03.624Z,22.10
2018-01-27T15:16:32.602Z,19.23
2018-01-27T15:19:01.588Z,22.13
2018-01-27T15:21:29.782Z,23.03
2018-01-27T15:23:58.004Z,20.73
2018-01-27T15:26:27.753Z,24.83
2018-01-27T15:28:57.111Z,26.23
2018-01-27T15:31:25.425Z,48.77
2018-01-27T15:33:53.703Z,33.10
2018-01-27T15:36:21.917Z,23.97
2018-01-27T15:38:50.914Z,33.50
2018-01-27T15:41:20.031Z,27.50
2018-01-27T15:43:48.227Z,31.87
2018-01-27T15:46:16.491Z,42.80
2018-01-27T15:48:44.729Z,27.10
2018-01-27T15:51:13.733Z,28.73
2018-01-27T15:53:42.705Z,23.93
2018-01-27T15:56:10.899Z,41.07
2018-01-27T15:58:39.136Z,34.93
2018-01-27T16:01:07.341Z,42.23
2018-01-27T16:03:36.516Z,23.43
2018-01-27T16:06:05.497Z,30.60
2018-01-27T16:08:33.854Z,26.43
2018-01-27T16:11:02.087Z,33.50
2018-01-27T16:13:31.115Z,29.83
2018-01-27T16:15:59.309Z,25.30
2018-01-27T16:18:28.295Z,32.17
2018-01-27T16:20:57.103Z,28.10
2018-01-27T16:23:25.300Z,33.63
2018-01-27T16:25:53.506Z,26.93
2018-01-27T16:28:22.453Z,22.93
2018-01-27T16:30:50.762Z,27.47
2018-01-27T16:33:18.954Z,23.47
2018-01-27T16:35:47.926Z,24.80
2018-01-27T16:38:16.961Z,27.80
2018-01-27T16:40:45.192Z,25.53
2018-01-27T16:43:13.353Z,28.43
2018-01-27T16:45:41.544Z,33.13
2018-01-27T16:48:10.586Z,32.13
2018-01-27T16:50:39.542Z,34.37
2018-01-27T16:53:08.726Z,29.63
2018-01-27T16:55:36.909Z,32.50
2018-01-27T16:58:05.894Z,39.37
2018-01-27T17:00:34.216Z,32.43
2018-01-27T17:03:02.443Z,43.40
2018-01-27T17:05:30.629Z,27.83
2018-01-27T17:07:59.620Z,52.70
2018-01-27T17:10:27.820Z,22.00
2018-01-27T17:12:56.773Z,26.87
2018-01-27T17:15:24.982Z,76.00
2018-01-27T17:17:53.948Z,89.27
2018-01-27T17:20:22.157Z,36.50
2018-01-27T17:22:51.237Z,28.33
2018-01-27T17:25:19.456Z,25.33
2018-01-27T17:27:47.652Z,22.50
2018-01-27T17:30:15.833Z,20.33
2018-01-27T17:32:44.264Z,19.33
2018-01-27T17:35:12.470Z,18.53
2018-01-27T17:37:40.736Z,21.93
2018-01-27T17:40:09.005Z,22.00
2018-01-27T17:42:38.551Z,28.73
2018-01-27T17:45:06.918Z,26.30
2018-01-27T17:47:35.117Z,33.50
2018-01-27T17:50:03.312Z,22.27
2018-01-27T17:52:31.561Z,35.23
2018-01-27T17:54:59.729Z,55.20
2018-01-27T17:57:27.916Z,28.60
2018-01-27T17:59:56.165Z,37.70
2018-01-27T18:02:24.401Z,78.40
2018-01-27T18:04:52.614Z,66.90
2018-01-27T18:07:20.847Z,37.63
2018-01-27T18:09:49.015Z,40.23
2018-01-27T18:12:18.723Z,81.03
2018-01-27T18:14:48.511Z,103.83
2018-01-27T18:17:16.693Z,63.77
2018-01-27T18:19:44.927Z,61.80
2018-01-27T18:22:13.109Z,75.23
2018-01-27T18:24:41.331Z,62.40
2018-01-27T18:27:09.670Z,35.33
2018-01-27T18:29:37.871Z,47.17
2018-01-27T18:32:06.380Z,48.57
2018-01-27T18:34:34.584Z,49.63
2018-01-27T18:37:03.568Z,35.10
2018-01-27T18:39:31.921Z,61.03
2018-01-27T18:42:01.635Z,33.57
2018-01-27T18:44:29.859Z,39.30
2018-01-27T18:46:58.076Z,24.90
2018-01-27T18:49:26.295Z,23.37
2018-01-27T18:51:55.306Z,28.83
2018-01-27T18:54:23.528Z,24.73
2018-01-27T18:56:51.712Z,26.87
2018-01-27T18:59:19.948Z,24.20
2018-01-27T19:01:48.157Z,24.40
2018-01-27T19:04:16.389Z,23.03
2018-01-27T19:06:45.344Z,24.17
2018-01-27T19:09:14.296Z,23.07
2018-01-27T19:11:42.479Z,23.43
2018-01-27T19:14:10.660Z,25.53
2018-01-27T19:16:38.867Z,23.63
2018-01-27T19:19:07.117Z,25.90
2018-01-27T19:21:35.446Z,25.30
2018-01-27T19:24:03.657Z,22.60
2018-01-27T19:26:31.905Z,24.03
2018-01-27T19:29:00.184Z,21.07
2018-01-27T19:31:28.408Z,23.17
2018-01-27T19:33:56.614Z,26.30
2018-01-27T19:36:24.850Z,21.27
2018-01-27T19:38:53.807Z,23.33
2018-01-27T19:41:22.011Z,20.87
2018-01-27T19:43:50.232Z,23.13
2018-01-27T19:46:19.241Z,24.50
2018-01-27T19:48:48.211Z,23.03
2018-01-27T19:51:16.387Z,24.47
2018-01-27T19:53:45.369Z,21.77
2018-01-27T19:56:13.571Z,19.43
2018-01-27T19:58:42.521Z,22.60
2018-01-27T20:01:10.775Z,22.23
2018-01-27T20:03:38.963Z,20.47
2018-01-27T20:06:07.185Z,25.53
2018-01-27T20:08:36.156Z,19.80
2018-01-27T20:11:05.228Z,21.23
2018-01-27T20:13:33.426Z,25.63
2018-01-27T20:16:03.459Z,24.07
2018-01-27T20:18:31.716Z,26.80
2018-01-27T20:20:59.910Z,27.33
2018-01-27T20:23:28.918Z,27.33
2018-01-27T20:25:57.853Z,27.07
2018-01-27T20:28:26.052Z,24.03
2018-01-27T20:30:54.266Z,29.03
2018-01-27T20:33:23.244Z,30.70
2018-01-27T20:35:51.438Z,27.40
2018-01-27T20:38:20.513Z,29.63
2018-01-27T20:40:49.498Z,23.97
2018-01-27T20:43:17.680Z,26.10
2018-01-27T20:45:45.902Z,23.23
2018-01-27T20:48:14.099Z,29.43
2018-01-27T20:50:42.280Z,26.30
2018-01-27T20:53:11.211Z,25.80
2018-01-27T20:55:39.776Z,26.10
2018-01-27T20:58:08.028Z,21.53
2018-01-27T21:00:36.210Z,21.73
2018-01-27T21:03:04.388Z,22.77
2018-01-27T21:05:32.608Z,19.67
2018-01-27T21:08:01.565Z,21.70
2018-01-27T21:10:29.757Z,21.70
2018-01-27T21:12:58.730Z,21.63
2018-01-27T21:15:26.914Z,24.13
2018-01-27T21:17:55.143Z,23.07
2018-01-27T21:20:23.353Z,23.60
2018-01-27T21:22:51.695Z,24.73
2018-01-27T21:25:19.915Z,25.00
2018-01-27T21:27:48.107Z,22.70
2018-01-27T21:30:17.104Z,27.17
2018-01-27T21:32:45.291Z,26.47
2018-01-27T21:35:14.261Z,25.57
2018-01-27T21:37:43.221Z,25.53
2018-01-27T21:40:11.475Z,23.67
2018-01-27T21:42:39.693Z,24.73
2018-01-27T21:45:07.981Z,27.43
2018-01-27T21:47:36.215Z,27.60
2018-01-27T21:50:04.413Z,25.27
2018-01-27T21:52:32.611Z,30.53
2018-01-27T21:55:00.967Z,25.77
2018-01-27T21:57:29.168Z,25.77
2018-01-27T21:59:57.355Z,27.97
2018-01-27T22:02:25.534Z,26.07
2018-01-27T22:04:54.504Z,29.00
2018-01-27T22:07:23.556Z,24.73
2018-01-27T22:09:51.753Z,27.77
2018-01-27T22:12:19.969Z,25.07
2018-01-27T22:14:48.156Z,26.07
2018-01-27T22:17:17.126Z,25.87
2018-01-27T22:19:45.356Z,27.23
2018-01-27T22:22:13.562Z,24.00
2018-01-27T22:24:42.511Z,27.03
2018-01-27T22:27:10.748Z,23.53
2018-01-27T22:29:40.504Z,21.53
2018-01-27T22:32:08.706Z,25.07
2018-01-27T22:34:36.894Z,22.77
2018-01-27T22:37:05.120Z,23.33
2018-01-27T22:39:34.082Z,25.67
2018-01-27T22:42:02.285Z,27.37
2018-01-27T22:44:30.526Z,26.67
2018-01-27T22:46:58.704Z,24.27
2018-01-27T22:49:27.661Z,21.30
2018-01-27T22:51:55.845Z,22.77
2018-01-27T22:54:24.016Z,21.20
2018-01-27T22:56:52.266Z,23.20
2018-01-27T22:59:20.473Z,21.07
2018-01-27T23:01:48.651Z,20.23
2018-01-27T23:04:16.835Z,22.60
2018-01-27T23:06:45.080Z,22.13
2018-01-27T23:09:13.245Z,21.50
2018-01-27T23:11:41.429Z,19.60
2018-01-27T23:14:09.675Z,26.37
2018-01-27T23:16:37.847Z,23.03
2018-01-27T23:19:06.031Z,20.60
2018-01-27T23:21:35.018Z,21.10
2018-01-27T23:24:03.194Z,22.07
2018-01-27T23:26:31.441Z,23.90
2018-01-27T23:28:59.651Z,24.20
2018-01-27T23:31:29.193Z,20.17
2018-01-27T23:33:57.431Z,23.57
2018-01-27T23:36:26.433Z,22.93
2018-01-27T23:38:55.375Z,23.97
2018-01-27T23:41:23.561Z,28.57
2018-01-27T23:43:51.764Z,26.13
2018-01-27T23:46:20.705Z,20.30
2018-01-27T23:48:48.867Z,22.00
2018-01-27T23:51:17.093Z,25.73
2018-01-27T23:53:45.728Z,28.83
2018-01-27T23:56:13.887Z,26.33
2018-01-27T23:58:42.890Z,29.57
